createdAt,value
2019-04-14T00:00:22.984Z,4.38
2019-04-14T00:01:22.401Z,4.31
2019-04-14T00:02:22.809Z,4.36
2019-04-14T00:03:23.495Z,4.39
2019-04-14T00:04:22.632Z,4.30
2019-04-14T00:05:23.264Z,4.24
2019-04-14T00:06:22.449Z,4.26
2019-04-14T00:07:23.039Z,4.35
2019-04-14T00:08:22.355Z,4.35
2019-04-14T00:09:22.683Z,4.38
2019-04-14T00:10:22.581Z,4.34
2019-04-14T00:11:23.329Z,4.42
2019-04-14T00:12:23.021Z,4.30
2019-04-14T00:13:22.264Z,4.34
2019-04-14T00:14:22.931Z,4.31
2019-04-14T00:15:31.044Z,4.13
2019-04-14T00:16:23.232Z,4.28
2019-04-14T00:17:22.223Z,4.13
2019-04-14T00:18:23.014Z,4.20
2019-04-14T00:19:22.231Z,4.23
2019-04-14T00:20:22.852Z,4.17
2019-04-14T00:21:22.183Z,4.12
2019-04-14T00:22:22.706Z,4.18
2019-04-14T00:23:22.156Z,4.17
2019-04-14T00:24:22.799Z,4.23
2019-04-14T00:25:22.174Z,4.21
2019-04-14T00:26:22.614Z,4.26
2019-04-14T00:27:22.113Z,4.20
2019-04-14T00:28:22.874Z,4.21
2019-04-14T00:29:22.094Z,4.17
2019-04-14T00:30:23.029Z,4.09
2019-04-14T00:31:22.066Z,4.05
2019-04-14T00:32:22.705Z,3.94
2019-04-14T00:33:22.044Z,4.00
2019-04-14T00:34:22.447Z,3.96
2019-04-14T00:35:23.057Z,3.94
2019-04-14T00:36:22.012Z,4.05
2019-04-14T00:37:22.737Z,4.05
2019-04-14T00:38:21.990Z,4.02
2019-04-14T00:39:22.669Z,4.02
2019-04-14T00:40:21.967Z,3.99
2019-04-14T00:41:34.540Z,4.09
2019-04-14T00:42:23.419Z,4.13
2019-04-14T00:43:22.094Z,4.00
2019-04-14T00:44:23.024Z,4.00
2019-04-14T00:45:33.954Z,4.08
2019-04-14T00:46:23.264Z,4.00
2019-04-14T00:47:22.205Z,3.88
2019-04-14T00:48:22.928Z,4.08
2019-04-14T00:49:22.180Z,4.02
2019-04-14T00:50:21.890Z,3.88
2019-04-14T00:51:22.119Z,4.00
2019-04-14T00:52:21.868Z,4.00
2019-04-14T00:53:22.863Z,4.03
2019-04-14T00:54:21.842Z,3.96
2019-04-14T00:55:22.586Z,4.26
2019-04-14T00:56:21.792Z,4.28
2019-04-14T00:57:22.401Z,4.38
2019-04-14T00:58:21.782Z,4.56
2019-04-14T00:59:22.240Z,4.54
2019-04-14T01:00:21.960Z,4.69
2019-04-14T01:01:21.938Z,4.72
2019-04-14T01:02:21.738Z,4.61
2019-04-14T01:03:22.000Z,4.66
2019-04-14T01:04:22.915Z,4.51
2019-04-14T01:05:21.808Z,4.43
2019-04-14T01:06:22.845Z,4.39
2019-04-14T01:07:21.680Z,4.51
2019-04-14T01:08:22.725Z,4.79
2019-04-14T01:09:21.686Z,5.25
2019-04-14T01:10:21.644Z,5.79
2019-04-14T01:11:22.435Z,6.13
2019-04-14T01:12:21.625Z,6.05
2019-04-14T01:13:22.161Z,5.93
2019-04-14T01:14:21.614Z,5.67
2019-04-14T01:15:22.239Z,5.21
2019-04-14T01:16:23.855Z,4.94
2019-04-14T01:17:22.018Z,4.83
2019-04-14T01:18:21.555Z,4.66
2019-04-14T01:19:22.001Z,4.61
2019-04-14T01:20:21.538Z,4.54
2019-04-14T01:21:21.822Z,4.35
2019-04-14T01:22:22.705Z,4.46
2019-04-14T01:23:21.615Z,4.41
2019-04-14T01:24:22.730Z,4.45
2019-04-14T01:25:21.575Z,4.30
2019-04-14T01:26:22.540Z,4.24
2019-04-14T01:27:21.458Z,4.20
2019-04-14T01:28:22.247Z,4.17
2019-04-14T01:29:21.432Z,4.20
2019-04-14T01:30:21.980Z,4.21
2019-04-14T01:31:21.475Z,4.08
2019-04-14T01:32:21.907Z,4.17
2019-04-14T01:33:21.393Z,4.21
2019-04-14T01:34:21.674Z,4.13
2019-04-14T01:35:22.653Z,4.08
2019-04-14T01:36:21.390Z,4.26
2019-04-14T01:37:22.480Z,4.20
2019-04-14T01:38:21.360Z,4.05
2019-04-14T01:39:22.164Z,4.05
2019-04-14T01:40:21.342Z,4.06
2019-04-14T01:41:21.689Z,4.00
2019-04-14T01:42:22.311Z,4.06
2019-04-14T01:43:21.391Z,4.05
2019-04-14T01:44:22.097Z,4.12
2019-04-14T01:45:21.268Z,4.05
2019-04-14T01:46:25.942Z,4.17
2019-04-14T01:47:22.736Z,4.16
2019-04-14T01:48:21.451Z,4.00
2019-04-14T01:49:22.446Z,4.02
2019-04-14T01:50:21.321Z,4.08
2019-04-14T01:51:22.198Z,4.16
2019-04-14T01:52:21.205Z,4.23
2019-04-14T01:53:21.170Z,4.05
2019-04-14T01:54:21.436Z,4.09
2019-04-14T01:55:22.222Z,4.03
2019-04-14T01:56:21.148Z,4.09
2019-04-14T01:57:22.070Z,3.96
2019-04-14T01:58:21.118Z,4.08
2019-04-14T01:59:21.962Z,4.08
2019-04-14T02:00:21.093Z,4.08
2019-04-14T02:01:21.734Z,4.03
2019-04-14T02:02:21.095Z,3.96
2019-04-14T02:03:21.689Z,4.02
2019-04-14T02:04:21.053Z,3.91
2019-04-14T02:05:21.394Z,3.88
2019-04-14T02:06:22.247Z,3.87
2019-04-14T02:07:21.252Z,3.90
2019-04-14T02:08:22.008Z,3.91
2019-04-14T02:09:20.996Z,3.96
2019-04-14T02:10:21.680Z,4.03
2019-04-14T02:11:20.977Z,4.03
2019-04-14T02:12:21.442Z,4.02
2019-04-14T02:13:20.983Z,4.05
2019-04-14T02:14:21.226Z,3.99
2019-04-14T02:15:22.172Z,3.87
2019-04-14T02:16:30.201Z,3.82
2019-04-14T02:17:22.096Z,3.82
2019-04-14T02:18:20.989Z,3.82
2019-04-14T02:19:21.977Z,3.73
2019-04-14T02:20:20.880Z,3.73
2019-04-14T02:21:21.593Z,3.70
2019-04-14T02:22:20.867Z,3.76
2019-04-14T02:23:21.478Z,3.78
2019-04-14T02:24:21.988Z,3.80
2019-04-14T02:25:21.043Z,3.76
2019-04-14T02:26:21.975Z,3.60
2019-04-14T02:27:21.058Z,3.70
2019-04-14T02:28:22.022Z,3.64
2019-04-14T02:29:21.160Z,3.66
2019-04-14T02:30:26.194Z,3.69
2019-04-14T02:31:51.325Z,3.63
2019-04-14T02:32:49.450Z,3.72
2019-04-14T02:33:50.535Z,3.69
2019-04-14T02:34:49.390Z,3.76
2019-04-14T02:36:05.755Z,3.59
2019-04-14T02:36:54.064Z,3.59
2019-04-14T02:37:58.952Z,3.70
2019-04-14T02:40:01.631Z,3.70
2019-04-14T02:40:55.563Z,3.66
2019-04-14T02:42:46.592Z,3.63
2019-04-14T02:43:52.304Z,3.62
2019-04-14T02:45:50.432Z,3.59
2019-04-14T02:48:52.832Z,3.44
2019-04-14T02:49:51.211Z,3.45
2019-04-14T02:50:48.067Z,3.44
2019-04-14T02:51:50.207Z,3.45
2019-04-14T02:53:00.543Z,3.32
2019-04-14T02:53:49.778Z,3.35
2019-04-14T02:55:49.238Z,3.33
2019-04-14T02:57:02.091Z,3.32
2019-04-14T02:57:44.996Z,3.36
2019-04-14T03:00:47.899Z,3.22
2019-04-14T03:01:55.344Z,3.29
2019-04-14T03:02:44.456Z,3.30
2019-04-14T03:03:48.892Z,3.29
2019-04-14T03:04:50.013Z,3.23
2019-04-14T03:06:50.258Z,3.22
2019-04-14T03:07:51.568Z,3.23
2019-04-14T03:08:52.102Z,3.20
2019-04-14T03:10:47.312Z,3.15
2019-04-14T03:11:48.946Z,3.15
2019-04-14T03:12:49.156Z,3.17
2019-04-14T03:13:51.474Z,3.26
2019-04-14T03:14:49.660Z,3.26
2019-04-14T03:15:53.800Z,3.30
2019-04-14T03:17:00.530Z,3.22
2019-04-14T03:17:58.291Z,3.23
2019-04-14T03:18:47.224Z,3.29
2019-04-14T03:19:56.826Z,3.23
2019-04-14T03:20:45.622Z,3.23
2019-04-14T03:22:55.852Z,3.22
2019-04-14T03:23:48.570Z,3.23
2019-04-14T03:24:42.160Z,3.15
2019-04-14T03:25:41.391Z,3.20
2019-04-14T03:26:51.648Z,3.15
2019-04-14T03:27:50.216Z,3.17
2019-04-14T03:29:45.065Z,3.22
2019-04-14T03:31:59.641Z,3.20
2019-04-14T03:34:18.197Z,3.17
2019-04-14T03:37:54.097Z,3.08
2019-04-14T03:38:55.015Z,3.22
2019-04-14T03:39:49.615Z,3.30
2019-04-14T03:40:50.502Z,3.17
2019-04-14T03:41:50.546Z,3.11
2019-04-14T03:42:54.223Z,3.09
2019-04-14T03:43:42.552Z,3.09
2019-04-14T03:46:50.780Z,3.07
2019-04-14T03:48:04.008Z,3.04
2019-04-14T03:50:47.924Z,3.05
2019-04-14T03:52:05.972Z,3.14
2019-04-14T03:52:50.069Z,3.07
2019-04-14T03:53:41.292Z,3.04
2019-04-14T03:54:40.236Z,3.11
2019-04-14T03:55:31.847Z,3.18
2019-04-14T03:56:21.653Z,3.04
2019-04-14T03:57:19.803Z,3.09
2019-04-14T03:58:20.498Z,3.12
2019-04-14T03:59:19.830Z,3.05
2019-04-14T04:00:20.226Z,3.02
2019-04-14T04:01:19.791Z,3.09
2019-04-14T04:02:20.503Z,3.11
2019-04-14T04:03:19.766Z,3.11
2019-04-14T04:04:20.540Z,3.17
2019-04-14T04:05:19.715Z,3.09
2019-04-14T04:06:20.335Z,3.12
2019-04-14T04:07:19.696Z,3.09
2019-04-14T04:08:20.126Z,3.14
2019-04-14T04:09:19.670Z,3.23
2019-04-14T04:10:19.661Z,3.20
2019-04-14T04:11:19.683Z,3.11
2019-04-14T04:12:20.390Z,3.09
2019-04-14T04:13:19.628Z,3.09
2019-04-14T04:14:20.337Z,2.97
2019-04-14T04:15:19.604Z,3.11
2019-04-14T04:16:20.198Z,3.14
2019-04-14T04:17:19.609Z,3.02
2019-04-14T04:18:19.874Z,3.11
2019-04-14T04:19:20.085Z,2.99
2019-04-14T04:20:19.686Z,2.94
2019-04-14T04:21:20.652Z,3.00
2019-04-14T04:22:19.579Z,2.94
2019-04-14T04:23:20.479Z,2.99
2019-04-14T04:24:19.504Z,2.99
2019-04-14T04:25:20.421Z,2.90
2019-04-14T04:26:19.519Z,2.87
2019-04-14T04:27:20.055Z,2.86
2019-04-14T04:28:19.472Z,2.93
2019-04-14T04:29:20.120Z,2.94
2019-04-14T04:30:19.436Z,2.90
2019-04-14T04:31:19.881Z,2.94
2019-04-14T04:32:20.562Z,2.87
2019-04-14T04:33:19.873Z,2.75
2019-04-14T04:34:20.294Z,2.84
2019-04-14T04:35:19.672Z,2.81
2019-04-14T04:36:20.315Z,2.89
2019-04-14T04:37:19.383Z,2.81
2019-04-14T04:38:20.186Z,2.89
2019-04-14T04:39:19.354Z,2.87
2019-04-14T04:40:20.078Z,2.75
2019-04-14T04:41:19.329Z,2.72
2019-04-14T04:42:19.839Z,2.87
2019-04-14T04:43:19.304Z,2.78
2019-04-14T04:44:20.178Z,2.72
2019-04-14T04:45:19.279Z,2.81
2019-04-14T04:46:19.767Z,2.72
2019-04-14T04:47:19.272Z,2.84
2019-04-14T04:48:19.623Z,2.76
2019-04-14T04:49:23.067Z,2.78
2019-04-14T04:50:21.331Z,2.72
2019-04-14T04:51:20.267Z,2.73
2019-04-14T04:52:19.239Z,2.79
2019-04-14T04:53:20.183Z,2.76
2019-04-14T04:54:19.244Z,2.73
2019-04-14T04:55:19.815Z,2.79
2019-04-14T04:56:19.149Z,2.73
2019-04-14T04:57:19.914Z,2.75
2019-04-14T04:58:19.532Z,2.76
2019-04-14T04:59:19.202Z,2.73
2019-04-14T05:00:19.969Z,2.76
2019-04-14T05:01:19.091Z,2.71
2019-04-14T05:02:19.803Z,2.66
2019-04-14T05:03:19.099Z,2.65
2019-04-14T05:04:19.844Z,2.73
2019-04-14T05:05:19.046Z,2.68
2019-04-14T05:06:21.665Z,2.71
2019-04-14T05:07:19.025Z,2.63
2019-04-14T05:08:19.554Z,2.61
2019-04-14T05:09:19.007Z,2.61
2019-04-14T05:10:19.536Z,2.61
2019-04-14T05:11:18.980Z,2.53
2019-04-14T05:12:19.577Z,2.55
2019-04-14T05:13:18.958Z,2.58
2019-04-14T05:14:19.484Z,2.65
2019-04-14T05:15:18.944Z,2.61
2019-04-14T05:16:19.241Z,2.65
2019-04-14T05:17:19.160Z,2.69
2019-04-14T05:18:20.018Z,2.60
2019-04-14T05:19:25.700Z,2.76
2019-04-14T05:20:20.324Z,2.66
2019-04-14T05:21:19.213Z,2.66
2019-04-14T05:22:20.526Z,2.81
2019-04-14T05:23:19.148Z,2.76
2019-04-14T05:24:19.926Z,2.75
2019-04-14T05:25:19.078Z,2.63
2019-04-14T05:26:19.808Z,2.78
2019-04-14T05:27:18.932Z,2.79
2019-04-14T05:28:19.834Z,2.79
2019-04-14T05:29:19.063Z,2.72
2019-04-14T05:30:19.703Z,2.82
2019-04-14T05:31:18.770Z,2.89
2019-04-14T05:32:19.452Z,2.86
2019-04-14T05:33:18.743Z,2.86
2019-04-14T05:34:19.462Z,2.76
2019-04-14T05:35:18.743Z,2.90
2019-04-14T05:36:19.301Z,2.89
2019-04-14T05:37:18.695Z,2.90
2019-04-14T05:38:19.053Z,2.91
2019-04-14T05:39:19.882Z,2.86
2019-04-14T05:40:18.930Z,2.75
2019-04-14T05:41:18.648Z,2.72
2019-04-14T05:42:22.269Z,2.87
2019-04-14T05:43:31.282Z,2.79
2019-04-14T05:44:20.731Z,2.84
2019-04-14T05:45:19.760Z,2.75
2019-04-14T05:46:18.615Z,2.78
2019-04-14T05:47:19.648Z,2.72
2019-04-14T05:48:18.568Z,2.73
2019-04-14T05:49:28.541Z,2.61
2019-04-14T05:50:20.294Z,2.54
2019-04-14T05:51:20.599Z,2.60
2019-04-14T05:52:18.576Z,2.61
2019-04-14T05:53:19.607Z,2.58
2019-04-14T05:54:18.586Z,2.65
2019-04-14T05:55:19.790Z,2.61
2019-04-14T05:56:18.678Z,2.82
2019-04-14T05:57:18.486Z,2.72
2019-04-14T05:58:18.624Z,2.81
2019-04-14T05:59:18.449Z,2.79
2019-04-14T06:00:19.098Z,2.89
2019-04-14T06:01:18.425Z,2.89
2019-04-14T06:02:18.424Z,2.96
2019-04-14T06:03:19.113Z,2.97
2019-04-14T06:04:18.404Z,3.04
2019-04-14T06:05:18.969Z,3.05
2019-04-14T06:06:18.372Z,2.99
2019-04-14T06:07:18.363Z,3.09
2019-04-14T06:08:18.358Z,2.97
2019-04-14T06:09:18.340Z,3.09
2019-04-14T06:10:18.363Z,3.20
2019-04-14T06:11:18.324Z,3.11
2019-04-14T06:12:18.303Z,3.15
2019-04-14T06:13:18.299Z,3.18
2019-04-14T06:14:18.283Z,3.12
2019-04-14T06:15:18.273Z,3.15
2019-04-14T06:16:18.282Z,3.22
2019-04-14T06:17:18.254Z,3.05
2019-04-14T06:18:18.237Z,3.20
2019-04-14T06:19:18.224Z,3.17
2019-04-14T06:20:18.222Z,3.12
2019-04-14T06:21:18.227Z,3.17
2019-04-14T06:22:18.199Z,3.18
2019-04-14T06:23:18.192Z,3.15
2019-04-14T06:24:18.180Z,3.09
2019-04-14T06:25:18.161Z,3.11
2019-04-14T06:26:18.205Z,3.26
2019-04-14T06:27:18.143Z,3.20
2019-04-14T06:28:18.133Z,3.29
2019-04-14T06:29:18.117Z,3.26
2019-04-14T06:30:18.109Z,3.22
2019-04-14T06:31:18.090Z,3.22
2019-04-14T06:32:18.166Z,3.23
2019-04-14T06:33:18.069Z,3.33
2019-04-14T06:34:18.078Z,3.30
2019-04-14T06:35:18.048Z,3.37
2019-04-14T06:36:18.084Z,3.35
2019-04-14T06:37:18.051Z,3.33
2019-04-14T06:38:18.015Z,3.35
2019-04-14T06:39:18.004Z,3.44
2019-04-14T06:40:17.995Z,3.32
2019-04-14T06:41:18.053Z,3.46
2019-04-14T06:42:17.968Z,3.25
2019-04-14T06:43:17.974Z,3.30
2019-04-14T06:44:17.946Z,3.44
2019-04-14T06:45:17.944Z,3.20
2019-04-14T06:46:17.969Z,3.33
2019-04-14T06:47:17.918Z,3.42
2019-04-14T06:48:17.902Z,3.44
2019-04-14T06:49:17.913Z,3.25
2019-04-14T06:50:17.884Z,3.48
2019-04-14T06:51:17.873Z,3.35
2019-04-14T06:52:17.897Z,3.46
2019-04-14T06:53:17.846Z,3.60
2019-04-14T06:54:17.834Z,3.55
2019-04-14T06:55:17.826Z,3.59
2019-04-14T06:56:17.817Z,3.56
2019-04-14T06:57:17.828Z,3.67
2019-04-14T06:58:17.794Z,3.66
2019-04-14T06:59:17.780Z,3.76
2019-04-14T07:00:17.772Z,3.84
2019-04-14T07:01:17.756Z,3.82
2019-04-14T07:02:17.770Z,3.90
2019-04-14T07:03:17.744Z,3.87
2019-04-14T07:04:17.727Z,3.82
2019-04-14T07:05:17.727Z,3.78
2019-04-14T07:06:17.709Z,4.00
2019-04-14T07:07:17.734Z,3.80
2019-04-14T07:08:17.685Z,4.03
2019-04-14T07:09:17.678Z,4.00
2019-04-14T07:10:17.656Z,4.00
2019-04-14T07:11:17.648Z,4.00
2019-04-14T07:12:17.803Z,4.09
2019-04-14T07:13:19.531Z,3.99
2019-04-14T07:14:17.615Z,3.98
2019-04-14T07:15:17.605Z,3.98
2019-04-14T07:16:17.589Z,4.02
2019-04-14T07:17:17.615Z,4.09
2019-04-14T07:18:17.572Z,4.13
2019-04-14T07:19:17.562Z,4.03
2019-04-14T07:20:17.560Z,4.18
2019-04-14T07:21:17.543Z,4.35
2019-04-14T07:22:17.559Z,4.39
2019-04-14T07:23:17.517Z,4.45
2019-04-14T07:24:17.519Z,4.43
2019-04-14T07:25:17.505Z,4.41
2019-04-14T07:26:17.482Z,4.49
2019-04-14T07:27:17.476Z,4.59
2019-04-14T07:28:17.503Z,4.57
2019-04-14T07:29:17.451Z,4.59
2019-04-14T07:30:17.439Z,4.56
2019-04-14T07:31:17.431Z,4.59
2019-04-14T07:32:17.460Z,4.57
2019-04-14T07:33:17.430Z,4.59
2019-04-14T07:34:17.432Z,4.69
2019-04-14T07:35:17.382Z,4.64
2019-04-14T07:36:17.380Z,4.67
2019-04-14T07:37:19.055Z,4.64
2019-04-14T07:38:17.379Z,4.72
2019-04-14T07:39:17.371Z,4.72
2019-04-14T07:40:17.332Z,4.59
2019-04-14T07:41:17.316Z,4.69
2019-04-14T07:42:17.317Z,4.69
2019-04-14T07:43:17.299Z,4.67
2019-04-14T07:44:17.311Z,4.69
2019-04-14T07:45:17.275Z,4.71
2019-04-14T07:46:17.270Z,4.61
2019-04-14T07:47:17.262Z,4.71
2019-04-14T07:48:17.254Z,4.79
2019-04-14T07:49:17.437Z,4.82
2019-04-14T07:50:17.217Z,4.98
2019-04-14T07:51:17.204Z,5.09
2019-04-14T07:52:17.198Z,5.11
2019-04-14T07:53:17.187Z,5.12
2019-04-14T07:54:17.179Z,5.12
2019-04-14T07:55:17.240Z,5.06
2019-04-14T07:56:17.149Z,5.06
2019-04-14T07:57:17.137Z,5.15
2019-04-14T07:58:17.164Z,5.04
2019-04-14T07:59:17.118Z,5.11
2019-04-14T08:00:17.108Z,5.16
2019-04-14T08:01:17.103Z,5.12
2019-04-14T08:02:17.092Z,5.22
2019-04-14T08:03:17.115Z,5.29
2019-04-14T08:04:17.061Z,5.29
2019-04-14T08:05:17.150Z,5.24
2019-04-14T08:06:17.045Z,5.39
2019-04-14T08:07:17.035Z,5.33
2019-04-14T08:08:17.052Z,5.39
2019-04-14T08:09:17.056Z,5.25
2019-04-14T08:10:17.000Z,5.40
2019-04-14T08:11:16.990Z,5.54
2019-04-14T08:12:16.977Z,5.41
2019-04-14T08:13:16.962Z,5.41
2019-04-14T08:14:16.988Z,5.59
2019-04-14T08:15:16.977Z,5.58
2019-04-14T08:16:16.942Z,5.55
2019-04-14T08:17:16.917Z,5.51
2019-04-14T08:18:16.917Z,5.52
2019-04-14T08:19:16.933Z,5.47
2019-04-14T08:20:26.728Z,5.54
2019-04-14T08:21:17.873Z,5.54
2019-04-14T08:22:16.868Z,5.77
2019-04-14T08:23:16.868Z,5.77
2019-04-14T08:24:16.879Z,5.79
2019-04-14T08:25:16.835Z,5.82
2019-04-14T08:26:16.827Z,5.80
2019-04-14T08:27:16.818Z,5.90
2019-04-14T08:28:16.804Z,6.05
2019-04-14T08:29:16.819Z,6.09
2019-04-14T08:30:16.787Z,6.13
2019-04-14T08:31:16.779Z,6.18
2019-04-14T08:32:16.765Z,6.27
2019-04-14T08:33:16.755Z,6.42
2019-04-14T08:34:16.780Z,6.40
2019-04-14T08:35:16.722Z,6.53
2019-04-14T08:36:16.714Z,6.42
2019-04-14T08:37:16.713Z,6.50
2019-04-14T08:38:16.696Z,6.57
2019-04-14T08:39:16.719Z,6.63
2019-04-14T08:40:16.673Z,6.65
2019-04-14T08:41:16.654Z,6.67
2019-04-14T08:42:16.657Z,6.75
2019-04-14T08:43:16.640Z,6.61
2019-04-14T08:44:16.638Z,6.64
2019-04-14T08:45:16.647Z,6.64
2019-04-14T08:46:16.620Z,6.68
2019-04-14T08:47:16.589Z,6.74
2019-04-14T08:48:16.575Z,6.96
2019-04-14T08:49:16.578Z,6.83
2019-04-14T08:50:16.580Z,7.03
2019-04-14T08:51:16.556Z,7.03
2019-04-14T08:52:16.533Z,7.11
2019-04-14T08:53:16.529Z,7.11
2019-04-14T08:54:16.522Z,7.15
2019-04-14T08:55:16.533Z,7.07
2019-04-14T08:56:16.494Z,7.11
2019-04-14T08:57:16.488Z,7.18
2019-04-14T08:58:16.472Z,7.21
2019-04-14T08:59:16.458Z,7.22
2019-04-14T09:00:16.475Z,7.21
2019-04-14T09:01:16.461Z,7.22
2019-04-14T09:02:16.432Z,7.19
2019-04-14T09:03:16.422Z,7.40
2019-04-14T09:04:16.424Z,7.40
2019-04-14T09:05:16.419Z,7.43
2019-04-14T09:06:16.385Z,7.43
2019-04-14T09:07:16.368Z,7.50
2019-04-14T09:08:16.359Z,7.62
2019-04-14T09:09:16.345Z,7.64
2019-04-14T09:10:16.377Z,7.78
2019-04-14T09:11:16.352Z,7.87
2019-04-14T09:12:16.465Z,7.80
2019-04-14T09:13:16.301Z,7.60
2019-04-14T09:14:16.296Z,7.60
2019-04-14T09:15:16.303Z,7.73
2019-04-14T09:16:16.338Z,7.64
2019-04-14T09:17:16.261Z,7.71
2019-04-14T09:18:16.252Z,7.64
2019-04-14T09:19:16.243Z,7.74
2019-04-14T09:20:16.220Z,7.74
2019-04-14T09:21:16.205Z,7.91
2019-04-14T09:22:16.227Z,8.02
2019-04-14T09:23:16.198Z,8.14
2019-04-14T09:24:16.192Z,8.29
2019-04-14T09:25:16.170Z,8.20
2019-04-14T09:26:16.191Z,8.17
2019-04-14T09:27:16.179Z,8.34
2019-04-14T09:28:16.129Z,8.31
2019-04-14T09:29:16.144Z,8.47
2019-04-14T09:30:16.113Z,8.57
2019-04-14T09:31:16.137Z,8.55
2019-04-14T09:32:16.080Z,8.53
2019-04-14T09:33:16.076Z,8.35
2019-04-14T09:34:16.063Z,8.29
2019-04-14T09:35:16.054Z,8.23
2019-04-14T09:36:16.083Z,8.31
2019-04-14T09:37:16.071Z,8.35
2019-04-14T09:38:16.023Z,8.26
2019-04-14T09:39:16.016Z,8.23
2019-04-14T09:40:16.004Z,8.29
2019-04-14T09:41:16.027Z,8.35
2019-04-14T09:42:15.979Z,8.55
2019-04-14T09:43:16.011Z,8.53
2019-04-14T09:44:15.959Z,8.60
2019-04-14T09:45:15.963Z,8.72
2019-04-14T09:46:15.960Z,8.70
2019-04-14T09:47:15.930Z,8.89
2019-04-14T09:48:15.935Z,8.96
2019-04-14T09:49:15.891Z,8.81
2019-04-14T09:50:15.885Z,8.85
2019-04-14T09:51:15.953Z,8.90
2019-04-14T09:52:15.953Z,8.89
2019-04-14T09:53:15.872Z,8.80
2019-04-14T09:54:15.846Z,8.72
2019-04-14T09:55:15.890Z,8.86
2019-04-14T09:56:15.864Z,8.95
2019-04-14T09:57:15.822Z,9.04
2019-04-14T09:58:15.810Z,8.90
2019-04-14T09:59:15.799Z,8.90
2019-04-14T10:00:15.772Z,8.85
2019-04-14T10:01:15.763Z,9.03
2019-04-14T10:02:15.778Z,8.88
2019-04-14T10:03:15.757Z,8.90
2019-04-14T10:04:15.734Z,8.92
2019-04-14T10:05:15.726Z,8.93
2019-04-14T10:06:15.751Z,9.11
2019-04-14T10:07:15.712Z,9.14
2019-04-14T10:08:15.690Z,9.27
2019-04-14T10:09:15.675Z,9.33
2019-04-14T10:10:15.668Z,9.34
2019-04-14T10:11:15.660Z,9.41
2019-04-14T10:12:15.678Z,9.44
2019-04-14T10:13:15.667Z,9.63
2019-04-14T10:14:15.619Z,9.50
2019-04-14T10:15:15.628Z,9.52
2019-04-14T10:16:15.591Z,9.65
2019-04-14T10:17:15.619Z,9.66
2019-04-14T10:18:15.619Z,9.78
2019-04-14T10:19:15.582Z,9.83
2019-04-14T10:20:15.559Z,9.67
2019-04-14T10:21:17.530Z,9.66
2019-04-14T10:22:15.526Z,9.72
2019-04-14T10:23:15.528Z,9.81
2019-04-14T10:24:15.544Z,9.91
2019-04-14T10:25:15.499Z,10.21
2019-04-14T10:26:15.479Z,10.67
2019-04-14T10:27:15.498Z,11.05
2019-04-14T10:28:15.509Z,11.34
2019-04-14T10:29:15.474Z,11.56
2019-04-14T10:30:15.438Z,12.00
2019-04-14T10:31:15.426Z,12.26
2019-04-14T10:32:15.420Z,12.08
2019-04-14T10:33:15.420Z,12.28
2019-04-14T10:34:15.418Z,11.99
2019-04-14T10:35:15.379Z,11.66
2019-04-14T10:36:15.381Z,11.70
2019-04-14T10:37:15.362Z,11.73
2019-04-14T10:38:15.351Z,11.89
2019-04-14T10:39:15.380Z,12.13
2019-04-14T10:40:15.324Z,12.47
2019-04-14T10:41:15.310Z,12.61
2019-04-14T10:42:15.306Z,12.72
2019-04-14T10:43:15.300Z,12.80
2019-04-14T10:44:15.317Z,12.72
2019-04-14T10:45:18.130Z,12.54
2019-04-14T10:46:15.253Z,12.81
2019-04-14T10:47:15.246Z,13.11
2019-04-14T10:48:15.244Z,13.30
2019-04-14T10:49:15.251Z,13.14
2019-04-14T10:50:15.218Z,13.01
2019-04-14T10:51:15.209Z,12.83
2019-04-14T10:52:15.198Z,12.68
2019-04-14T10:53:15.179Z,12.15
2019-04-14T10:54:15.195Z,11.54
2019-04-14T10:55:15.162Z,11.37
2019-04-14T10:56:15.143Z,11.16
2019-04-14T10:57:15.170Z,11.01
2019-04-14T10:58:15.118Z,10.80
2019-04-14T10:59:15.137Z,10.58
2019-04-14T11:00:15.228Z,10.30
2019-04-14T11:01:15.089Z,10.31
2019-04-14T11:02:15.081Z,10.35
2019-04-14T11:03:15.067Z,10.42
2019-04-14T11:04:15.169Z,10.57
2019-04-14T11:05:15.045Z,10.64
2019-04-14T11:06:15.032Z,10.64
2019-04-14T11:07:15.029Z,10.83
2019-04-14T11:08:15.013Z,10.94
2019-04-14T11:09:15.032Z,11.09
2019-04-14T11:10:14.984Z,11.20
2019-04-14T11:11:14.978Z,11.30
2019-04-14T11:12:14.974Z,11.23
2019-04-14T11:13:14.973Z,11.20
2019-04-14T11:14:14.944Z,11.25
2019-04-14T11:15:15.580Z,11.30
2019-04-14T11:16:14.917Z,11.48
2019-04-14T11:17:14.914Z,11.67
2019-04-14T11:18:14.906Z,11.54
2019-04-14T11:19:14.906Z,11.61
2019-04-14T11:20:14.977Z,11.45
2019-04-14T11:21:14.880Z,11.36
2019-04-14T11:22:14.857Z,11.20
2019-04-14T11:23:14.855Z,10.85
2019-04-14T11:24:14.833Z,10.61
2019-04-14T11:25:14.845Z,10.46
2019-04-14T11:26:14.810Z,10.49
2019-04-14T11:27:14.829Z,10.58
2019-04-14T11:28:14.797Z,10.86
2019-04-14T11:29:14.781Z,10.94
2019-04-14T11:30:14.795Z,10.85
2019-04-14T11:31:14.751Z,10.98
2019-04-14T11:32:14.744Z,11.05
2019-04-14T11:33:14.749Z,11.04
2019-04-14T11:34:14.748Z,10.91
2019-04-14T11:35:16.468Z,10.94
2019-04-14T11:36:14.710Z,11.00
2019-04-14T11:37:14.717Z,10.86
2019-04-14T11:38:14.690Z,10.87
2019-04-14T11:39:14.664Z,10.75
2019-04-14T11:40:14.679Z,10.58
2019-04-14T11:41:14.656Z,10.49
2019-04-14T11:42:14.646Z,10.46
2019-04-14T11:43:14.627Z,10.39
2019-04-14T11:44:14.609Z,10.35
2019-04-14T11:45:14.643Z,10.57
2019-04-14T11:46:14.657Z,10.60
2019-04-14T11:47:16.263Z,10.55
2019-04-14T11:48:14.566Z,10.64
2019-04-14T11:49:14.550Z,10.79
2019-04-14T11:50:14.539Z,10.95
2019-04-14T11:51:14.560Z,10.90
2019-04-14T11:52:14.518Z,10.83
2019-04-14T11:53:14.512Z,10.86
2019-04-14T11:54:14.495Z,10.80
2019-04-14T11:55:14.479Z,10.91
2019-04-14T11:56:14.528Z,10.85
2019-04-14T11:57:14.463Z,10.86
2019-04-14T11:58:14.469Z,10.70
2019-04-14T11:59:14.433Z,10.62
2019-04-14T12:00:14.426Z,10.57
2019-04-14T12:01:14.509Z,10.61
2019-04-14T12:02:14.400Z,10.79
2019-04-14T12:03:14.409Z,10.87
2019-04-14T12:04:14.382Z,10.94
2019-04-14T12:05:14.371Z,10.98
2019-04-14T12:06:14.393Z,11.12
2019-04-14T12:07:14.350Z,11.25
2019-04-14T12:08:14.340Z,11.40
2019-04-14T12:09:14.329Z,11.55
2019-04-14T12:10:14.321Z,11.36
2019-04-14T12:11:14.330Z,11.22
2019-04-14T12:12:14.288Z,11.09
2019-04-14T12:13:14.282Z,11.03
2019-04-14T12:14:14.278Z,10.98
2019-04-14T12:15:16.535Z,10.82
2019-04-14T12:16:14.275Z,10.68
2019-04-14T12:17:14.238Z,10.52
2019-04-14T12:18:14.230Z,10.52
2019-04-14T12:19:14.265Z,10.39
2019-04-14T12:20:14.214Z,10.52
2019-04-14T12:21:14.231Z,10.36
2019-04-14T12:22:14.204Z,10.46
2019-04-14T12:23:16.079Z,10.49
2019-04-14T12:24:14.158Z,10.65
2019-04-14T12:25:14.146Z,10.79
2019-04-14T12:26:14.137Z,10.85
2019-04-14T12:27:14.143Z,10.94
2019-04-14T12:28:14.109Z,10.91
2019-04-14T12:29:14.252Z,10.93
2019-04-14T12:30:14.089Z,10.83
2019-04-14T12:31:15.240Z,10.83
2019-04-14T12:32:15.099Z,10.70
2019-04-14T12:33:14.054Z,10.62
2019-04-14T12:34:14.193Z,10.55
2019-04-14T12:35:14.054Z,10.70
2019-04-14T12:36:14.023Z,10.73
2019-04-14T12:37:14.055Z,10.60
2019-04-14T12:38:13.997Z,10.42
2019-04-14T12:39:14.019Z,10.39
2019-04-14T12:40:13.995Z,10.45
2019-04-14T12:41:13.988Z,10.43
2019-04-14T12:42:13.996Z,10.49
2019-04-14T12:43:13.964Z,10.48
2019-04-14T12:44:13.932Z,10.58
2019-04-14T12:45:13.925Z,10.58
2019-04-14T12:46:13.921Z,10.57
2019-04-14T12:47:13.920Z,10.54
2019-04-14T12:48:13.900Z,10.46
2019-04-14T12:49:13.884Z,10.48
2019-04-14T12:50:13.873Z,10.52
2019-04-14T12:51:13.856Z,10.65
2019-04-14T12:52:21.033Z,10.72
2019-04-14T12:53:14.908Z,10.67
2019-04-14T12:54:14.016Z,10.60
2019-04-14T12:55:13.806Z,10.46
2019-04-14T12:56:13.795Z,10.30
2019-04-14T12:57:13.789Z,10.27
2019-04-14T12:58:13.792Z,10.41
2019-04-14T12:59:13.769Z,10.57
2019-04-14T13:00:13.753Z,10.31
2019-04-14T13:01:13.737Z,10.39
2019-04-14T13:02:13.767Z,10.48
2019-04-14T13:03:13.746Z,10.67
2019-04-14T13:04:13.704Z,10.86
2019-04-14T13:05:13.690Z,10.94
2019-04-14T13:06:13.695Z,10.90
2019-04-14T13:07:13.675Z,11.19
2019-04-14T13:08:13.709Z,11.30
2019-04-14T13:09:14.696Z,11.40
2019-04-14T13:10:13.648Z,11.41
2019-04-14T13:11:13.626Z,11.34
2019-04-14T13:12:13.638Z,11.55
2019-04-14T13:13:13.650Z,11.46
2019-04-14T13:14:13.607Z,11.52
2019-04-14T13:15:13.594Z,11.36
2019-04-14T13:16:13.574Z,11.52
2019-04-14T13:17:13.558Z,11.40
2019-04-14T13:18:13.600Z,11.41
2019-04-14T13:19:13.538Z,11.30
2019-04-14T13:20:13.536Z,11.28
2019-04-14T13:21:13.519Z,11.34
2019-04-14T13:22:13.504Z,11.34
2019-04-14T13:23:13.528Z,11.31
2019-04-14T13:24:13.477Z,11.11
2019-04-14T13:25:13.468Z,11.37
2019-04-14T13:26:13.472Z,11.80
2019-04-14T13:27:13.463Z,12.14
2019-04-14T13:28:13.464Z,12.25
2019-04-14T13:29:13.429Z,12.15
2019-04-14T13:30:13.445Z,11.91
2019-04-14T13:31:13.400Z,11.69
2019-04-14T13:32:13.390Z,11.64
2019-04-14T13:33:13.390Z,11.40